createdAt,value
2023-05-22T00:01:57.416Z,83.7
2023-05-22T00:11:57.450Z,83.7
2023-05-22T00:21:57.307Z,83.7
2023-05-22T00:31:57.411Z,84.2
2023-05-22T00:41:57.542Z,84.7
2023-05-22T00:51:57.488Z,85.0
2023-05-22T01:01:57.486Z,85.3
2023-05-22T01:11:57.719Z,85.5
2023-05-22T01:21:57.436Z,85.3
2023-05-22T01:31:57.538Z,85.0
2023-05-22T01:41:57.685Z,85.1
2023-05-22T01:51:57.340Z,85.2
2023-05-22T02:01:57.313Z,86.0
2023-05-22T02:11:57.446Z,86.3
2023-05-22T02:21:57.880Z,86.7
2023-05-22T02:31:57.545Z,87.3
2023-05-22T02:41:58.366Z,88.0
2023-05-22T02:51:58.109Z,88.1
2023-05-22T03:01:57.434Z,89.1
2023-05-22T03:11:57.295Z,88.8
2023-05-22T03:21:57.616Z,88.8
2023-05-22T03:31:57.382Z,89.2
2023-05-22T03:41:57.675Z,89.7
2023-05-22T03:51:57.633Z,90.3
2023-05-22T04:01:57.863Z,90.6
2023-05-22T04:11:57.399Z,90.9
2023-05-22T04:21:57.454Z,90.9
2023-05-22T04:31:57.605Z,92.0
2023-05-22T04:41:57.630Z,90.3
2023-05-22T04:51:57.821Z,89.1
2023-05-22T05:01:57.309Z,89.6
2023-05-22T05:11:57.378Z,89.7
2023-05-22T05:21:57.378Z,90.0
2023-05-22T05:31:57.553Z,89.6
2023-05-22T05:41:57.684Z,89.3
2023-05-22T05:51:57.545Z,88.7
2023-05-22T06:01:57.427Z,88.4
2023-05-22T06:11:57.680Z,87.4
2023-05-22T06:21:57.479Z,87.0
2023-05-22T06:31:57.426Z,86.6
2023-05-22T06:41:57.384Z,86.4
2023-05-22T06:51:57.370Z,85.7
2023-05-22T07:01:57.357Z,82.9
2023-05-22T07:11:57.649Z,81.5
2023-05-22T07:21:57.341Z,80.6
2023-05-22T07:31:57.939Z,78.3
2023-05-22T07:41:58.378Z,75.9
2023-05-22T07:51:57.431Z,73.9
2023-05-22T08:01:58.500Z,73.4
2023-05-22T08:11:57.357Z,74.0
2023-05-22T08:21:57.295Z,74.7
2023-05-22T08:31:57.539Z,76.2
2023-05-22T08:41:57.563Z,74.4
2023-05-22T08:51:57.383Z,72.4
2023-05-22T09:01:57.411Z,72.8
2023-05-22T09:11:57.462Z,70.4
2023-05-22T09:21:57.379Z,69.4
2023-05-22T09:31:57.446Z,69.1
2023-05-22T09:41:57.861Z,69.7
2023-05-22T09:51:57.415Z,68.5
2023-05-22T10:01:57.741Z,66.9
2023-05-22T10:11:57.657Z,65.7
2023-05-22T10:21:57.460Z,65.5
2023-05-22T10:31:57.566Z,63.8
2023-05-22T10:41:58.033Z,62.9
2023-05-22T10:51:57.664Z,60.5
2023-05-22T11:01:57.428Z,60.0
2023-05-22T11:11:58.697Z,55.9
2023-05-22T11:21:57.356Z,55.8
2023-05-22T11:31:57.537Z,58.0
2023-05-22T11:41:57.496Z,53.5
2023-05-22T11:51:57.410Z,51.6
2023-05-22T12:01:57.533Z,51.4
2023-05-22T12:11:57.430Z,51.0
2023-05-22T12:21:57.434Z,49.9
2023-05-22T12:31:57.517Z,49.2
2023-05-22T12:41:57.994Z,49.8
2023-05-22T12:51:58.312Z,51.8
2023-05-22T13:01:57.475Z,52.9
2023-05-22T13:11:57.663Z,51.8
2023-05-22T13:21:57.484Z,52.5
2023-05-22T13:31:57.872Z,53.3
2023-05-22T13:41:57.884Z,53.5
2023-05-22T13:51:57.879Z,56.1
2023-05-22T14:01:58.005Z,62.0
2023-05-22T14:11:57.641Z,65.2
2023-05-22T14:21:57.483Z,63.9
2023-05-22T14:31:57.438Z,63.7
2023-05-22T14:41:57.499Z,62.8
2023-05-22T14:51:57.419Z,62.0
2023-05-22T15:01:57.700Z,62.6
2023-05-22T15:11:57.480Z,65.3
2023-05-22T15:22:08.934Z,66.7
2023-05-22T15:31:58.230Z,65.7
2023-05-22T15:42:05.923Z,62.3
2023-05-22T15:51:57.481Z,60.8
2023-05-22T16:01:58.204Z,61.2
2023-05-22T16:11:57.669Z,61.4
2023-05-22T16:21:57.712Z,61.3
2023-05-22T16:31:57.743Z,60.2
2023-05-22T16:41:58.729Z,60.3
2023-05-22T16:51:57.620Z,61.0
2023-05-22T17:01:57.570Z,60.1
2023-05-22T17:11:57.603Z,61.2
2023-05-22T17:21:57.495Z,61.5
2023-05-22T17:31:57.689Z,62.8
2023-05-22T17:41:59.688Z,63.3
2023-05-22T17:51:58.216Z,63.2
2023-05-22T18:01:57.789Z,64.3
2023-05-22T18:11:57.580Z,66.3
2023-05-22T18:21:57.800Z,67.1
2023-05-22T18:31:58.052Z,68.5
2023-05-22T18:41:57.581Z,69.0
2023-05-22T18:51:59.426Z,69.5
2023-05-22T19:01:57.660Z,70.2
2023-05-22T19:11:57.744Z,71.3
2023-05-22T19:21:57.660Z,72.0
2023-05-22T19:31:57.727Z,72.9
2023-05-22T19:41:57.977Z,74.1
2023-05-22T19:51:57.560Z,74.6
2023-05-22T20:01:59.025Z,75.4
2023-05-22T20:11:57.834Z,75.5
2023-05-22T20:21:57.962Z,76.1
2023-05-22T20:31:57.797Z,77.5
2023-05-22T20:41:57.644Z,78.5
2023-05-22T20:51:57.881Z,79.0
2023-05-22T21:01:58.109Z,80.5
2023-05-22T21:11:57.816Z,81.0
2023-05-22T21:21:57.690Z,81.1
2023-05-22T21:31:57.958Z,80.4
2023-05-22T21:41:58.145Z,81.4
2023-05-22T21:51:57.966Z,81.8
2023-05-22T22:01:58.148Z,81.8
2023-05-22T22:11:58.925Z,82.2
2023-05-22T22:21:57.954Z,81.8
2023-05-22T22:31:58.108Z,81.6
2023-05-22T22:41:57.847Z,81.6
2023-05-22T22:51:57.794Z,81.9
2023-05-22T23:02:04.034Z,82.0
2023-05-22T23:11:58.458Z,81.7
2023-05-22T23:21:59.429Z,81.6
2023-05-22T23:32:01.606Z,80.8
2023-05-22T23:41:58.869Z,81.8
2023-05-22T23:51:58.635Z,81.8
